Time;durP1;ratioP1;P1;durP2;ratioP2;P2;SDS_P1;SDS_P2;PMS_P1;PMS_P2;Temp;Humidity;BMP_temperature;BMP_pressure;BME280_temperature;BME280_humidity;BME280_pressure;Samples;Min_cycle;Max_cycle;Signal;HPM_P1;HPM_P2
2022/05/01 00:00:27;;;;;;;11.00;9.02;;;;;;;7.18;68.77;100376.69;5070843;28;20427;-70
2022/05/01 00:02:54;;;;;;;11.55;7.60;;;;;;;7.17;68.90;100375.84;5069409;28;20398;-70
2022/05/01 00:05:19;;;;;;;13.27;8.70;;;;;;;7.12;68.82;100376.88;5069781;28;20039;-70
2022/05/01 00:07:45;;;;;;;9.57;7.60;;;;;;;7.09;68.85;100372.56;5069104;28;20116;-69
2022/05/01 00:10:10;;;;;;;13.02;7.80;;;;;;;7.05;68.54;100369.13;5068761;28;20128;-70
2022/05/01 00:12:36;;;;;;;15.80;8.98;;;;;;;7.02;68.67;100371.84;5069888;28;20425;-69
2022/05/01 00:15:02;;;;;;;13.02;9.25;;;;;;;7.01;69.09;100369.25;5068931;28;20040;-70
2022/05/01 00:17:28;;;;;;;12.40;8.75;;;;;;;6.95;69.58;100372.91;5067320;28;20086;-69
2022/05/01 00:19:54;;;;;;;10.40;8.13;;;;;;;6.96;69.26;100365.88;5067905;28;20028;-70
2022/05/01 00:22:20;;;;;;;17.35;10.68;;;;;;;6.96;69.38;100365.88;5067096;28;20025;-68
2022/05/01 00:24:45;;;;;;;12.95;8.63;;;;;;;6.96;69.34;100363.25;5068905;28;20044;-69
2022/05/01 00:27:11;;;;;;;10.52;8.52;;;;;;;6.92;69.63;100359.03;5069127;28;20040;-69
2022/05/01 00:29:36;;;;;;;13.15;9.00;;;;;;;6.87;69.96;100357.38;5069477;28;20492;-71
2022/05/01 00:32:04;;;;;;;13.50;9.32;;;;;;;6.73;70.14;100359.47;5071231;28;20032;-69
2022/05/01 00:37:14;;;;;;;13.40;7.95;;;;;;;6.74;70.45;100350.69;5072182;28;20539;-70
2022/05/01 00:39:39;;;;;;;10.65;8.55;;;;;;;6.74;70.43;100350.69;5072276;28;20033;-69
2022/05/01 00:42:04;;;;;;;15.73;9.48;;;;;;;6.75;70.18;100344.56;5071320;28;20040;-70
2022/05/01 00:44:30;;;;;;;10.63;7.72;;;;;;;6.76;70.00;100343.66;5071930;28;20500;-68
2022/05/01 00:46:55;;;;;;;13.95;8.75;;;;;;;6.74;70.32;100353.31;5072719;28;20040;-69
2022/05/01 00:49:28;;;;;;;10.50;8.15;;;;;;;6.70;70.34;100356.06;5074426;28;20039;-68
2022/05/01 00:51:54;;;;;;;10.82;9.10;;;;;;;6.63;70.41;100352.72;5074711;28;20037;-69
2022/05/01 00:54:23;;;;;;;15.93;10.02;;;;;;;6.55;70.97;100354.69;5075687;28;20033;-69
2022/05/01 00:56:51;;;;;;;14.45;10.00;;;;;;;6.46;71.05;100355.72;5075141;28;20604;-70
2022/05/01 00:59:17;;;;;;;15.68;9.85;;;;;;;6.40;71.61;100350.66;5058423;28;20056;-71
2022/05/01 01:01:45;;;;;;;14.10;9.80;;;;;;;6.38;71.64;100350.69;5066679;28;20029;-69
2022/05/01 01:04:11;;;;;;;12.88;8.50;;;;;;;6.43;71.24;100350.56;5074985;28;20036;-69
2022/05/01 01:06:37;;;;;;;10.20;8.52;;;;;;;6.47;70.91;100351.34;5073761;28;20082;-70
2022/05/01 01:09:03;;;;;;;13.07;9.52;;;;;;;6.45;70.99;100343.56;5073649;28;20048;-70
2022/05/01 01:11:29;;;;;;;14.13;9.60;;;;;;;6.44;71.15;100352.28;5072195;28;20036;-70
2022/05/01 01:13:55;;;;;;;16.77;8.68;;;;;;;6.39;71.27;100348.91;5072385;28;20051;-69
2022/05/01 01:16:21;;;;;;;12.63;9.10;;;;;;;6.33;72.09;100351.69;5073210;28;20063;-68
2022/05/01 01:18:47;;;;;;;13.35;7.95;;;;;;;6.40;71.66;100348.88;5073749;28;20042;-69
2022/05/01 01:21:12;;;;;;;13.45;9.30;;;;;;;6.43;71.52;100346.19;5073087;28;20120;-69
2022/05/01 01:23:39;;;;;;;11.82;8.45;;;;;;;6.47;71.12;100346.97;5074236;28;20066;-69
2022/05/01 01:26:06;;;;;;;12.82;9.68;;;;;;;6.49;70.94;100345.19;5074966;28;20377;-69
2022/05/01 01:28:37;;;;;;;11.75;8.45;;;;;;;6.49;71.02;100345.19;5075080;28;20120;-69
2022/05/01 01:33:59;;;;;;;16.52;9.55;;;;;;;6.49;71.33;100344.31;5054158;28;20036;-69
2022/05/01 01:36:28;;;;;;;13.77;8.27;;;;;;;6.46;71.52;100353.13;5066095;28;20052;-69
2022/05/01 01:38:54;;;;;;;12.25;9.02;;;;;;;6.44;71.33;100355.75;5071018;28;20029;-70
2022/05/01 01:41:28;;;;;;;18.02;10.63;;;;;;;6.42;71.58;100343.59;5073665;28;20049;-69
2022/05/01 01:43:53;;;;;;;13.60;8.70;;;;;;;6.43;71.67;100359.28;5073353;28;20541;-70
2022/05/01 01:46:18;;;;;;;12.18;8.93;;;;;;;6.45;71.72;100354.03;5074950;28;20032;-69
2022/05/01 01:48:48;;;;;;;16.92;11.82;;;;;;;6.37;72.04;100359.41;5076560;28;20059;-70
2022/05/01 01:51:14;;;;;;;15.95;11.02;;;;;;;6.34;72.46;100353.41;5074879;28;20081;-69
2022/05/01 01:53:40;;;;;;;12.45;9.93;;;;;;;6.34;72.74;100353.41;5071321;28;20055;-70
2022/05/01 01:56:09;;;;;;;16.60;12.18;;;;;;;6.33;72.80;100346.44;5074397;28;20047;-70
2022/05/01 01:58:36;;;;;;;13.63;10.50;;;;;;;6.35;72.88;100357.72;5075492;28;20033;-69
2022/05/01 02:01:04;;;;;;;12.90;10.35;;;;;;;6.38;72.87;100344.59;5089071;28;20434;-69
2022/05/01 02:03:29;;;;;;;13.82;10.88;;;;;;;6.42;72.58;100349.72;5074674;28;20040;-69
2022/05/01 02:05:55;;;;;;;17.27;11.68;;;;;;;6.45;72.27;100344.41;5073042;28;20028;-69
2022/05/01 02:08:20;;;;;;;13.93;10.15;;;;;;;6.45;72.63;100346.16;5070723;28;20123;-70
2022/05/01 02:10:48;;;;;;;15.32;10.75;;;;;;;6.47;72.84;100340.88;5072918;28;20039;-69
2022/05/01 02:13:14;;;;;;;15.73;11.77;;;;;;;6.50;72.55;100341.69;5068779;28;20041;-69
2022/05/01 02:15:40;;;;;;;15.20;11.55;;;;;;;6.49;72.79;100345.19;5070569;28;20042;-69
2022/05/01 02:18:06;;;;;;;13.82;10.20;;;;;;;6.44;73.23;100336.56;5070427;28;20507;-70
2022/05/01 02:21:33;;;;;;;17.80;12.15;;;;;;;6.44;73.18;100341.81;5070971;28;20109;-70
2022/05/01 02:23:19;;;;;;;14.10;10.27;;;;;;;6.55;72.85;100344.19;5069981;28;20107;-69
2022/05/01 02:25:45;;;;;;;14.18;12.15;;;;;;;6.55;72.77;100338.97;5073813;28;20032;-69
2022/05/01 02:28:13;;;;;;;23.00;10.98;;;;;;;6.55;72.88;100334.56;5072884;28;20033;-70
2022/05/01 02:30:39;;;;;;;13.68;10.02;;;;;;;6.58;72.38;100337.09;5070137;28;20037;-70
2022/05/01 02:33:07;;;;;;;13.90;10.10;;;;;;;6.55;73.38;100334.56;5069628;28;20377;-70
2022/05/01 02:35:34;;;;;;;14.63;10.35;;;;;;;6.53;73.31;100332.88;5071467;28;20037;-69
2022/05/01 02:38:00;;;;;;;14.88;10.88;;;;;;;6.58;73.58;100328.41;5072761;28;20029;-69
2022/05/01 02:40:26;;;;;;;15.73;12.02;;;;;;;6.61;73.11;100330.94;5074217;28;20403;-69
2022/05/01 02:42:52;;;;;;;20.08;13.13;;;;;;;6.61;73.12;100325.69;5074083;28;20491;-69
2022/05/01 02:45:17;;;;;;;16.83;12.65;;;;;;;6.66;73.29;100319.44;5070191;28;20029;-70
2022/05/01 02:47:43;;;;;;;15.68;11.95;;;;;;;6.66;73.53;100321.19;5069466;28;20040;-70
2022/05/01 02:50:08;;;;;;;17.15;11.88;;;;;;;6.70;73.19;100320.25;5073387;28;20028;-69
2022/05/01 02:52:34;;;;;;;14.43;12.38;;;;;;;6.77;73.15;100329.66;5073468;28;20035;-68
2022/05/01 02:54:59;;;;;;;14.23;11.45;;;;;;;6.78;73.29;100314.81;5072466;28;20037;-69
2022/05/01 02:57:24;;;;;;;16.70;11.30;;;;;;;6.81;73.06;100307.72;5072881;28;20039;-69
2022/05/01 02:59:50;;;;;;;18.98;12.00;;;;;;;6.85;73.06;100308.50;5070049;28;20407;-69
2022/05/01 03:02:15;;;;;;;14.10;10.45;;;;;;;6.86;72.81;100313.69;5070814;28;20066;-69
2022/05/01 03:04:40;;;;;;;20.23;12.23;;;;;;;6.83;73.11;100305.06;5070686;28;20564;-69
2022/05/01 03:07:07;;;;;;;18.17;13.40;;;;;;;6.80;73.66;100306.00;5073243;28;20028;-70
2022/05/01 03:09:33;;;;;;;18.10;12.07;;;;;;;6.82;73.50;100298.97;5071875;28;20043;-69
2022/05/01 03:11:59;;;;;;;13.57;11.18;;;;;;;6.83;73.68;100305.91;5071336;28;20029;-69
2022/05/01 03:14:24;;;;;;;18.88;11.73;;;;;;;6.89;73.35;100304.88;5069978;28;20025;-68
2022/05/01 03:16:49;;;;;;;19.60;12.98;;;;;;;6.99;72.60;100306.41;5067657;28;20092;-70
2022/05/01 03:22:10;;;;;;;16.17;12.05;;;;;;;7.02;73.12;100301.06;5068722;28;20763;-70
2022/05/01 03:24:36;;;;;;;18.42;13.85;;;;;;;7.00;73.06;100297.63;5069281;28;20170;-70
2022/05/01 03:27:02;;;;;;;18.05;10.85;;;;;;;6.99;73.29;100300.28;5069473;28;20032;-69
2022/05/01 03:29:28;;;;;;;21.88;17.30;;;;;;;6.95;73.56;100299.50;5069445;28;20427;-70
2022/05/01 03:31:54;;;;;;;24.63;15.50;;;;;;;6.98;73.35;100299.41;5068346;28;20113;-70
2022/05/01 03:34:20;;;;;;;19.92;15.70;;;;;;;7.02;73.23;100292.34;5069557;28;20059;-70
2022/05/01 03:36:47;;;;;;;21.55;16.33;;;;;;;7.00;73.78;100292.38;5069537;28;20560;-69
2022/05/01 03:39:13;;;;;;;23.42;14.98;;;;;;;7.00;73.56;100299.38;5069770;28;20115;-70
2022/05/01 03:41:38;;;;;;;20.70;13.15;;;;;;;6.99;73.88;100295.91;5069282;28;20120;-70
2022/05/01 03:44:04;;;;;;;17.48;12.75;;;;;;;6.95;73.93;100294.25;5069120;28;20557;-70
2022/05/01 03:46:30;;;;;;;16.45;12.57;;;;;;;6.92;74.05;100291.72;5069383;28;20032;-70
2022/05/01 03:48:55;;;;;;;16.90;12.57;;;;;;;6.91;74.41;100292.59;5069488;28;20040;-69
2022/05/01 03:51:20;;;;;;;15.57;13.32;;;;;;;6.88;74.46;100290.94;5069299;28;20036;-69
2022/05/01 03:53:46;;;;;;;19.48;12.93;;;;;;;6.88;74.49;100287.47;5068763;28;20093;-70
2022/05/01 03:56:11;;;;;;;15.98;13.52;;;;;;;6.92;74.28;100283.88;5068869;28;20041;-70
2022/05/01 03:58:38;;;;;;;14.95;12.35;;;;;;;6.93;74.29;100288.19;5085931;28;20043;-70
2022/05/01 04:01:03;;;;;;;15.02;11.20;;;;;;;6.96;74.23;100290.72;5068102;28;20400;-70
2022/05/01 04:03:29;;;;;;;14.88;10.43;;;;;;;6.93;74.04;100288.19;5068904;28;20032;-70
2022/05/01 04:05:55;;;;;;;16.75;12.48;;;;;;;6.93;74.36;100290.81;5071140;28;20537;-70
2022/05/01 04:08:20;;;;;;;14.70;10.60;;;;;;;6.87;74.33;100289.22;5074177;28;20116;-69
2022/05/01 04:10:46;;;;;;;14.80;11.68;;;;;;;6.84;74.54;100291.94;5074061;28;20041;-70
2022/05/01 04:13:14;;;;;;;18.70;12.98;;;;;;;6.84;74.74;100289.31;5074329;28;20032;-69
2022/05/01 04:15:41;;;;;;;18.73;13.35;;;;;;;6.80;74.92;100292.03;5076493;28;20496;-69
2022/05/01 04:18:08;;;;;;;16.17;12.23;;;;;;;6.83;75.07;100290.19;5077312;28;20028;-69
2022/05/01 04:20:38;;;;;;;16.48;12.93;;;;;;;6.84;74.83;100289.31;5072982;28;20029;-69
2022/05/01 04:23:06;;;;;;;16.95;12.18;;;;;;;6.88;74.70;100288.31;5075860;28;20133;-69
2022/05/01 04:25:32;;;;;;;18.60;12.93;;;;;;;6.90;74.37;100298.75;5076000;28;20064;-69
2022/05/01 04:28:03;;;;;;;20.58;15.15;;;;;;;6.86;74.35;100291.88;5076825;28;20036;-69
2022/05/01 04:30:31;;;;;;;20.30;11.60;;;;;;;6.83;75.13;100292.81;5072846;28;20033;-70
2022/05/01 04:33:05;;;;;;;18.95;13.65;;;;;;;6.88;74.84;100290.06;5071717;28;20028;-70
2022/05/01 04:35:37;;;;;;;16.65;11.35;;;;;;;6.91;74.77;100292.59;5071411;28;20031;-70
2022/05/01 04:38:14;;;;;;;14.38;11.82;;;;;;;6.93;74.28;100293.44;5073479;28;20029;-70
2022/05/01 04:40:49;;;;;;;20.00;12.57;;;;;;;6.96;74.32;100297.75;5072128;28;20025;-70
2022/05/01 04:43:19;;;;;;;15.05;11.90;;;;;;;6.99;74.33;100293.28;5072019;28;20041;-70
2022/05/01 04:45:47;;;;;;;16.77;11.32;;;;;;;7.02;73.93;100287.97;5072375;28;20103;-69
2022/05/01 04:48:14;;;;;;;18.40;11.85;;;;;;;7.02;74.07;100293.19;5072358;28;20541;-69
2022/05/01 04:50:40;;;;;;;16.13;12.60;;;;;;;7.06;74.14;100302.72;5072823;28;20496;-68
2022/05/01 04:53:12;;;;;;;16.10;13.25;;;;;;;7.09;74.41;100293.91;5072867;28;20036;-69
2022/05/01 04:55:39;;;;;;;16.75;13.25;;;;;;;7.13;74.27;100295.53;5073834;28;20541;-70
2022/05/01 04:58:04;;;;;;;15.30;12.27;;;;;;;7.13;74.19;100292.06;5073456;28;20033;-70
2022/05/01 05:00:30;;;;;;;14.48;11.38;;;;;;;7.15;74.08;100285.88;5071067;28;20028;-71
2022/05/01 05:02:56;;;;;;;16.38;12.27;;;;;;;7.15;74.49;100293.72;5073693;28;20029;-70
2022/05/01 05:05:22;;;;;;;15.73;12.73;;;;;;;7.19;73.98;100292.75;5073603;28;20085;-70
2022/05/01 05:07:48;;;;;;;14.60;12.63;;;;;;;7.22;74.45;100289.19;5074375;28;20032;-70
2022/05/01 05:10:14;;;;;;;15.23;11.48;;;;;;;7.29;73.86;100290.75;5073707;28;20116;-69
2022/05/01 05:12:42;;;;;;;16.35;12.77;;;;;;;7.32;73.97;100290.66;5071630;28;20033;-69
2022/05/01 05:15:10;;;;;;;16.48;12.60;;;;;;;7.39;73.54;100286.97;5069790;28;20059;-70
2022/05/01 05:17:36;;;;;;;16.42;12.45;;;;;;;7.44;73.84;100292.06;5070575;28;20033;-70
2022/05/01 05:20:04;;;;;;;18.13;12.90;;;;;;;7.50;73.59;100295.38;5071433;28;20040;-69
2022/05/01 05:22:29;;;;;;;18.08;13.23;;;;;;;7.51;73.95;100297.09;5071021;28;20093;-69
2022/05/01 05:24:55;;;;;;;16.45;12.30;;;;;;;7.55;73.57;100297.00;5071548;28;20036;-70
2022/05/01 05:27:21;;;;;;;16.63;13.32;;;;;;;7.63;73.64;100301.16;5071199;28;20071;-70
2022/05/01 05:29:49;;;;;;;22.00;14.05;;;;;;;7.70;73.58;100304.44;5071109;28;20039;-70
2022/05/01 05:32:15;;;;;;;15.57;12.70;;;;;;;7.73;73.25;100302.59;5070900;28;20032;-69
2022/05/01 05:34:40;;;;;;;22.65;13.40;;;;;;;7.77;73.40;100305.13;5071881;28;20181;-69
2022/05/01 05:37:06;;;;;;;15.13;10.85;;;;;;;7.85;72.79;100290.88;5086340;28;20041;-69
2022/05/01 05:39:31;;;;;;;16.90;13.23;;;;;;;7.87;73.56;100302.16;5071257;28;20102;-70
2022/05/01 05:41:57;;;;;;;16.17;13.38;;;;;;;7.95;73.48;100308.06;5070419;28;20067;-70
2022/05/01 05:44:22;;;;;;;16.75;12.88;;;;;;;8.07;73.02;100311.22;5070569;28;20024;-70
2022/05/01 05:46:47;;;;;;;16.63;12.15;;;;;;;8.18;72.74;100307.34;5070555;28;20033;-70
2022/05/01 05:49:13;;;;;;;15.57;12.00;;;;;;;8.31;72.60;100301.72;5069395;28;20032;-69
2022/05/01 05:51:38;;;;;;;17.20;12.10;;;;;;;8.36;71.78;100308.53;5070380;28;20530;-70
2022/05/01 05:54:03;;;;;;;20.65;12.90;;;;;;;8.38;71.91;100311.13;5070453;28;20036;-70
2022/05/01 05:56:29;;;;;;;14.60;11.57;;;;;;;8.41;71.89;100308.44;5070690;28;20115;-69
2022/05/01 05:58:56;;;;;;;18.98;12.77;;;;;;;8.43;72.49;100311.00;5070718;28;20471;-70
2022/05/01 06:01:21;;;;;;;18.77;12.85;;;;;;;8.45;71.85;100307.44;5069886;28;20036;-70
2022/05/01 06:03:47;;;;;;;18.15;13.75;;;;;;;8.50;71.89;100308.13;5070741;28;20059;-69
2022/05/01 06:06:14;;;;;;;17.27;11.98;;;;;;;8.55;71.89;100305.38;5070775;28;20403;-69
2022/05/01 06:08:39;;;;;;;16.48;12.82;;;;;;;8.63;72.39;100308.59;5070982;28;20036;-70
2022/05/01 06:11:05;;;;;;;13.20;11.05;;;;;;;8.71;71.85;100301.34;5073567;28;20098;-69
2022/05/01 06:13:30;;;;;;;15.30;11.23;;;;;;;8.83;71.42;100297.41;5073152;28;20025;-70
2022/05/01 06:15:56;;;;;;;19.77;15.88;;;;;;;8.93;70.74;100303.22;5071706;28;20120;-70
2022/05/01 06:18:21;;;;;;;20.65;14.13;;;;;;;9.03;70.25;100304.63;5071938;28;20035;-69
2022/05/01 06:20:47;;;;;;;16.02;13.18;;;;;;;9.12;69.49;100306.09;5070864;28;20029;-69
2022/05/01 06:23:13;;;;;;;18.98;15.27;;;;;;;9.18;69.27;100312.00;5068869;28;20033;-69
2022/05/01 06:25:39;;;;;;;19.92;14.35;;;;;;;9.28;68.63;100306.38;5070245;28;20396;-69
2022/05/01 06:28:05;;;;;;;17.25;14.05;;;;;;;9.33;68.50;100314.97;5069272;28;20028;-69
2022/05/01 06:30:32;;;;;;;18.58;16.05;;;;;;;9.37;68.53;100308.69;5068836;28;20117;-69
2022/05/01 06:32:57;;;;;;;19.02;14.00;;;;;;;9.43;68.64;100311.13;5069113;28;20032;-69
2022/05/01 06:35:24;;;;;;;21.35;14.77;;;;;;;9.52;67.50;100313.41;5070737;28;20029;-69
2022/05/01 06:37:50;;;;;;;18.20;14.52;;;;;;;9.63;67.75;100311.25;5069807;28;20448;-68
2022/05/01 06:40:15;;;;;;;22.00;14.95;;;;;;;9.72;66.82;100309.19;5069602;28;20062;-70
2022/05/01 06:42:41;;;;;;;22.40;17.13;;;;;;;9.64;66.42;100307.69;5069882;28;20033;-69
2022/05/01 06:45:06;;;;;;;19.77;14.60;;;;;;;9.59;67.12;100320.16;5068150;28;20029;-69
2022/05/01 06:47:32;;;;;;;18.65;14.20;;;;;;;9.62;67.10;100312.19;5068350;28;20040;-69
2022/05/01 06:49:57;;;;;;;18.30;15.60;;;;;;;9.73;67.00;100316.19;5069709;28;20032;-70
2022/05/01 06:52:23;;;;;;;20.88;15.75;;;;;;;9.79;66.42;100315.94;5069167;28;20040;-69
2022/05/01 06:54:53;;;;;;;21.15;15.90;;;;;;;9.82;66.00;100311.44;5069591;28;20028;-71
2022/05/01 06:57:19;;;;;;;19.40;15.20;;;;;;;9.89;66.16;100310.28;5069539;28;20029;-71
2022/05/01 06:59:44;;;;;;;18.08;14.07;;;;;;;10.01;66.32;100305.44;5069328;28;20029;-70
2022/05/01 07:02:09;;;;;;;17.25;15.13;;;;;;;10.06;65.82;100309.59;5069331;28;20028;-70
2022/05/01 07:04:35;;;;;;;15.02;13.43;;;;;;;10.09;65.29;100314.78;5069546;28;20408;-70
2022/05/01 07:07:00;;;;;;;21.00;14.52;;;;;;;10.19;65.40;100309.13;5069616;28;20507;-70
2022/05/01 07:09:26;;;;;;;20.65;15.95;;;;;;;10.23;65.09;100314.22;5069668;28;20036;-69
2022/05/01 07:11:51;;;;;;;19.70;15.10;;;;;;;10.22;64.67;100316.94;5068411;28;20119;-69
2022/05/01 07:14:16;;;;;;;17.67;13.98;;;;;;;10.32;65.33;100315.69;5069250;28;20549;-69
2022/05/01 07:16:41;;;;;;;20.83;15.63;;;;;;;10.28;64.92;100322.00;5069796;28;20040;-69
2022/05/01 07:19:07;;;;;;;18.92;16.92;;;;;;;10.35;64.75;100319.97;5069591;28;20040;-69
2022/05/01 07:21:32;;;;;;;21.10;14.65;;;;;;;10.44;64.31;100317.84;5069134;28;20032;-69
2022/05/01 07:23:58;;;;;;;15.98;14.20;;;;;;;10.59;63.80;100318.13;5065821;28;20404;-69
2022/05/01 07:26:24;;;;;;;18.80;15.32;;;;;;;10.71;63.23;100317.63;5069418;28;20146;-69
2022/05/01 07:28:50;;;;;;;27.98;17.95;;;;;;;10.78;62.97;100312.94;5069259;28;20112;-68
2022/05/01 07:31:15;;;;;;;22.73;15.77;;;;;;;10.74;63.22;100323.63;5068603;28;20556;-69
2022/05/01 07:33:40;;;;;;;22.92;14.90;;;;;;;10.84;62.88;100320.63;5069582;28;20033;-68
2022/05/01 07:36:06;;;;;;;23.98;16.92;;;;;;;10.92;62.47;100319.34;5069932;28;20102;-68
2022/05/01 07:38:31;;;;;;;20.42;16.85;;;;;;;10.97;62.65;100319.16;5068935;28;20048;-69
2022/05/01 07:40:57;;;;;;;17.33;14.50;;;;;;;11.03;62.67;100324.19;5071181;28;20033;-68
2022/05/01 07:43:22;;;;;;;20.40;15.65;;;;;;;11.05;62.97;100321.47;5072837;28;20512;-68
2022/05/01 07:45:48;;;;;;;24.80;17.77;;;;;;;11.17;62.35;100320.94;5071930;28;20031;-68
2022/05/01 07:48:13;;;;;;;23.08;16.85;;;;;;;11.24;61.85;100321.56;5071623;28;20441;-70
2022/05/01 07:50:39;;;;;;;20.88;15.63;;;;;;;11.34;62.02;100320.22;5073951;28;20074;-70
2022/05/01 07:53:04;;;;;;;18.70;15.52;;;;;;;11.31;61.53;100325.66;5074158;28;20456;-70
2022/05/01 07:55:30;;;;;;;20.42;17.02;;;;;;;11.39;61.37;100326.16;5074606;28;20404;-70
2022/05/01 07:57:55;;;;;;;26.20;16.30;;;;;;;11.39;60.42;100328.78;5074228;28;20505;-70
2022/05/01 08:00:20;;;;;;;19.25;15.02;;;;;;;11.57;61.04;100320.06;5073464;28;20488;-69
2022/05/01 08:05:29;;;;;;;22.55;15.05;;;;;;;11.82;59.88;100319.81;5078141;28;20031;-69
2022/05/01 08:07:56;;;;;;;25.15;17.13;;;;;;;11.76;59.87;100322.75;5074460;28;20029;-69
2022/05/01 08:10:22;;;;;;;20.52;17.13;;;;;;;11.64;60.37;100325.06;5074443;28;20029;-69
2022/05/01 08:12:47;;;;;;;22.23;15.43;;;;;;;11.65;58.50;100329.44;5079313;28;20041;-68
2022/05/01 08:15:17;;;;;;;21.52;15.65;;;;;;;11.63;59.72;100318.09;5081562;28;20043;-69
2022/05/01 08:17:43;;;;;;;18.85;14.57;;;;;;;11.66;60.04;100323.22;5080660;28;20445;-69
2022/05/01 08:22:53;;;;;;;20.48;15.48;;;;;;;11.91;58.94;100320.34;5077909;28;20036;-69
2022/05/01 08:25:18;;;;;;;20.67;15.93;;;;;;;11.95;59.58;100320.13;5077722;28;20044;-70
2022/05/01 08:27:43;;;;;;;17.23;13.43;;;;;;;12.08;59.47;100323.06;5081295;28;20051;-69
2022/05/01 08:30:09;;;;;;;20.58;15.95;;;;;;;12.15;59.02;100321.00;5079361;28;20487;-70
2022/05/01 08:32:34;;;;;;;17.65;13.32;;;;;;;12.21;58.31;100332.16;5075276;28;20044;-69
2022/05/01 08:35:00;;;;;;;21.83;18.15;;;;;;;12.38;58.33;100320.78;5075943;28;20040;-70
2022/05/01 08:37:25;;;;;;;19.25;16.33;;;;;;;12.60;58.37;100319.69;5075738;28;20040;-69
2022/05/01 08:39:51;;;;;;;22.60;14.63;;;;;;;12.85;56.67;100316.72;5073140;28;20107;-70
2022/05/01 08:42:16;;;;;;;22.77;16.65;;;;;;;12.97;56.44;100321.41;5072138;28;20090;-70
2022/05/01 08:44:43;;;;;;;19.60;15.50;;;;;;;13.04;55.58;100317.50;5072798;28;20039;-70
2022/05/01 08:47:27;;;;;;;21.85;16.25;;;;;;;13.17;54.61;100315.09;5072193;28;20113;-70
2022/05/01 08:49:58;;;;;;;18.50;14.20;;;;;;;13.37;54.33;100318.53;5070423;28;20032;-71
2022/05/01 08:52:26;;;;;;;23.17;15.98;;;;;;;13.50;53.70;100314.28;5070964;28;20028;-70
2022/05/01 08:54:52;;;;;;;20.13;15.50;;;;;;;13.54;54.30;100318.50;5070900;28;20033;-71
2022/05/01 08:57:21;;;;;;;18.20;15.05;;;;;;;13.53;53.50;100320.25;5072230;28;20094;-71
2022/05/01 08:59:52;;;;;;;20.58;16.05;;;;;;;13.52;52.81;100307.97;5071804;28;20547;-71
2022/05/01 09:02:17;;;;;;;18.80;14.05;;;;;;;13.50;51.82;100312.47;5073097;28;20029;-69
2022/05/01 09:04:43;;;;;;;19.95;11.38;;;;;;;13.41;49.96;100315.59;5072233;28;20028;-69
2022/05/01 09:07:09;;;;;;;17.27;11.40;;;;;;;13.31;48.50;100317.03;5071925;28;20032;-70
2022/05/01 09:09:34;;;;;;;18.67;12.05;;;;;;;13.39;49.13;100313.97;5087314;28;20759;-71
2022/05/01 09:14:45;;;;;;;14.18;11.73;;;;;;;13.41;49.46;100312.09;5072585;28;20075;-69
2022/05/01 09:17:19;;;;;;;19.30;11.88;;;;;;;13.49;49.38;100312.59;5071881;28;20454;-70
2022/05/01 09:19:53;;;;;;;17.17;13.10;;;;;;;13.43;49.70;100323.50;5045866;28;20028;-70
2022/05/01 09:22:20;;;;;;;15.80;12.37;;;;;;;13.43;49.93;100313.75;5086519;28;20500;-67
2022/05/01 09:24:45;;;;;;;35.70;14.32;;;;;;;13.39;49.04;100312.22;5074762;28;20442;-69
2022/05/01 09:27:32;;;;;;;16.13;11.98;;;;;;;13.43;49.26;100318.19;5074642;28;20024;-69
2022/05/01 09:30:07;;;;;;;18.90;12.73;;;;;;;13.47;49.08;100315.31;5073825;28;20062;-69
2022/05/01 09:32:38;;;;;;;18.00;12.82;;;;;;;13.48;48.24;100322.28;5072238;28;20039;-68
2022/05/01 09:35:04;;;;;;;14.02;11.30;;;;;;;13.38;49.79;100320.22;5070883;28;21071;-70
2022/05/01 09:37:30;;;;;;;13.05;10.50;;;;;;;13.43;49.61;100329.63;5070975;28;20116;-70
2022/05/01 09:39:55;;;;;;;17.45;12.27;;;;;;;13.47;49.04;100325.03;5070691;28;20111;-68
2022/05/01 09:42:24;;;;;;;18.10;13.57;;;;;;;13.45;49.45;100325.13;5070033;28;20033;-70
2022/05/01 09:45:08;;;;;;;20.13;13.50;;;;;;;13.40;49.71;100318.34;5071897;28;20028;-70
2022/05/01 09:47:40;;;;;;;20.55;11.30;;;;;;;13.55;49.57;100322.84;5070995;28;20048;-69
2022/05/01 09:50:07;;;;;;;17.77;12.55;;;;;;;13.65;49.19;100315.25;5069859;28;20036;-69
2022/05/01 09:52:55;;;;;;;17.08;12.10;;;;;;;13.62;49.12;100321.56;5070095;28;20035;-69
2022/05/01 09:55:20;;;;;;;19.35;13.73;;;;;;;13.63;48.96;100319.78;5070291;28;20139;-70
2022/05/01 09:57:46;;;;;;;17.88;13.25;;;;;;;13.69;48.79;100307.06;5070303;28;20119;-69
2022/05/01 10:00:12;;;;;;;21.30;13.55;;;;;;;13.52;48.11;100318.56;5070504;28;20048;-70
2022/05/01 10:02:37;;;;;;;17.77;12.48;;;;;;;13.15;47.90;100318.75;5069701;28;20072;-69
2022/05/01 10:05:07;;;;;;;16.75;12.55;;;;;;;13.08;48.87;100319.03;5070176;28;20449;-69
2022/05/01 10:07:37;;;;;;;18.77;13.73;;;;;;;13.29;48.52;100326.84;5069012;28;20087;-71
2022/05/01 10:10:07;;;;;;;14.02;10.88;;;;;;;13.47;47.89;100315.31;5069133;28;20511;-70
2022/05/01 10:12:41;;;;;;;18.77;11.77;;;;;;;13.56;47.62;100319.28;5072371;28;20407;-68
2022/05/01 10:15:08;;;;;;;15.77;11.13;;;;;;;13.63;48.05;100311.84;5072963;28;20032;-68
2022/05/01 10:17:35;;;;;;;16.13;12.77;;;;;;;13.57;46.86;100312.19;5071816;28;20040;-70
2022/05/01 10:20:02;;;;;;;16.05;13.02;;;;;;;13.24;47.56;100312.94;5071025;28;20037;-70
2022/05/01 10:22:27;;;;;;;16.73;11.02;;;;;;;13.32;48.20;100309.03;5071898;28;20031;-70
2022/05/01 10:24:53;;;;;;;24.30;10.18;;;;;;;13.47;47.09;100309.16;5072198;28;20036;-69
2022/05/01 10:27:30;;;;;;;17.13;12.23;;;;;;;13.45;46.40;100316.31;5070087;28;20395;-69
2022/05/01 10:33:02;;;;;;;14.38;10.40;;;;;;;13.49;46.54;100305.50;5069418;28;20101;-70
2022/05/01 10:35:45;;;;;;;16.17;13.23;;;;;;;13.51;45.99;100306.28;5069784;28;20033;-70
2022/05/01 10:38:27;;;;;;;14.13;11.32;;;;;;;13.46;46.00;100295.06;5069804;28;20041;-71
2022/05/01 10:40:57;;;;;;;13.45;10.90;;;;;;;13.52;46.65;100300.03;5069925;28;20116;-69
2022/05/01 10:43:30;;;;;;;16.17;12.38;;;;;;;13.64;46.58;100301.16;5069868;28;20055;-70
2022/05/01 10:46:18;;;;;;;14.73;11.15;;;;;;;13.79;46.45;100295.97;5069791;28;20021;-71
2022/05/01 10:48:44;;;;;;;15.20;11.95;;;;;;;13.90;45.27;100291.78;5070033;28;20476;-70
2022/05/01 10:51:29;;;;;;;15.55;12.48;;;;;;;13.95;45.04;100289.75;5069241;28;20039;-70
2022/05/01 10:54:10;;;;;;;18.38;11.23;;;;;;;13.99;44.75;100287.78;5069510;28;20089;-70
2022/05/01 10:56:40;;;;;;;16.90;11.73;;;;;;;14.21;44.21;100286.59;5069661;28;20404;-70
2022/05/01 10:59:30;;;;;;;14.82;11.25;;;;;;;14.44;44.29;100280.81;5070103;28;20043;-69
2022/05/01 11:02:25;;;;;;;12.25;9.80;;;;;;;14.71;43.27;100280.19;5069453;28;20036;-69
2022/05/01 11:04:53;;;;;;;18.50;13.73;;;;;;;14.48;44.22;100277.06;5058849;28;20565;-68
2022/05/01 11:07:20;;;;;;;17.92;12.98;;;;;;;14.23;44.21;100271.47;5071902;28;20033;-69
2022/05/01 11:09:49;;;;;;;15.43;12.82;;;;;;;14.28;44.95;100270.25;5068215;28;20040;-68
2022/05/01 11:12:19;;;;;;;15.13;12.15;;;;;;;14.49;43.85;100267.28;5069523;28;20066;-69
2022/05/01 11:14:53;;;;;;;15.88;12.75;;;;;;;14.68;43.76;100265.31;5068602;28;20067;-69
2022/05/01 11:17:36;;;;;;;16.58;12.15;;;;;;;14.79;43.03;100264.66;5069779;28;20158;-69
2022/05/01 11:20:14;;;;;;;17.48;12.93;;;;;;;14.83;43.57;100260.91;5067294;28;20037;-70
2022/05/01 11:22:40;;;;;;;18.50;15.90;;;;;;;14.74;43.16;100267.63;5068964;28;20499;-68
2022/05/01 11:25:10;;;;;;;17.85;14.85;;;;;;;14.72;43.67;100258.03;5070286;28;20043;-69
2022/05/01 11:27:52;;;;;;;21.98;16.45;;;;;;;14.86;43.22;100266.03;5073374;28;20028;-70
2022/05/01 11:30:26;;;;;;;15.38;12.25;;;;;;;15.12;43.01;100256.50;5070589;28;20488;-70
2022/05/01 11:33:03;;;;;;;21.13;14.65;;;;;;;15.15;42.09;100251.00;5069140;28;20044;-71
2022/05/01 11:35:56;;;;;;;21.33;16.33;;;;;;;15.01;42.35;100258.94;5069347;28;20390;-70